Time;durP1;ratioP1;P1;durP2;ratioP2;P2;SDS_P1;SDS_P2;PMS_P1;PMS_P2;Temp;Humidity;BMP_temperature;BMP_pressure;BME280_temperature;BME280_humidity;BME280_pressure;Samples;Min_cycle;Max_cycle;Signal;HPM_P1;HPM_P2
2021/08/31 00:00:48;;;;;;;22.95;17.95;;;;;;;;;;4965686;28;20105;-73
2021/08/31 00:03:16;;;;;;;25.40;18.75;;;;;;;;;;4965577;28;20053;-70
2021/08/31 00:05:43;;;;;;;23.33;18.52;;;;;;;;;;4965415;28;20070;-71
2021/08/31 00:08:10;;;;;;;21.63;17.35;;;;;;;;;;4966179;28;20050;-72
2021/08/31 00:10:37;;;;;;;22.95;17.17;;;;;;;;;;4965633;28;20113;-70
2021/08/31 00:13:05;;;;;;;22.58;16.90;;;;;;;;;;4979970;28;20050;-72
2021/08/31 00:15:32;;;;;;;21.58;16.33;;;;;;;;;;4965820;28;20138;-71
2021/08/31 00:18:01;;;;;;;22.00;16.17;;;;;;;;;;4965643;28;20166;-73
2021/08/31 00:20:29;;;;;;;22.15;16.15;;;;;;;;;;4965583;28;20517;-74
2021/08/31 00:22:56;;;;;;;;;;;;;;;;;;4981029;28;20035;-70
2021/08/31 00:25:25;;;;;;;24.30;16.17;;;;;;;;;;4965628;28;20380;-70
2021/08/31 00:27:52;;;;;;;21.92;15.85;;;;;;;;;;4965515;28;20050;-71
2021/08/31 00:30:19;;;;;;;19.15;15.30;;;;;;;;;;4968955;28;20047;-70
2021/08/31 00:32:46;;;;;;;20.48;15.02;;;;;;;;;;4969107;28;20490;-72
2021/08/31 00:35:13;;;;;;;25.50;15.27;;;;;;;;;;4969018;28;20165;-72
2021/08/31 00:37:40;;;;;;;17.55;14.82;;;;;;;;;;4969523;28;20039;-70
2021/08/31 00:40:11;;;;;;;19.25;15.25;;;;;;;;;;4968692;28;20109;-70
2021/08/31 00:42:38;;;;;;;21.38;15.63;;;;;;;;;;4968649;28;20519;-73
2021/08/31 00:45:05;;;;;;;21.42;15.85;;;;;;;;;;4983873;28;20096;-71
2021/08/31 00:47:32;;;;;;;20.35;14.93;;;;;;;;;;4968841;28;20039;-70
2021/08/31 00:49:59;;;;;;;19.40;15.68;;;;;;;;;;4968846;28;20041;-71
2021/08/31 00:52:28;;;;;;;20.52;15.18;;;;;;;;;;4969090;28;20405;-70
2021/08/31 00:54:55;;;;;;;20.65;15.05;;;;;;;;;;4968842;28;20039;-70
2021/08/31 00:57:22;;;;;;;17.92;14.68;;;;;;;;;;4968567;28;20034;-72
2021/08/31 00:59:50;;;;;;;19.17;15.48;;;;;;;;;;4969050;28;20118;-70
2021/08/31 01:02:17;;;;;;;18.33;15.10;;;;;;;;;;4968941;28;20122;-70
2021/08/31 01:04:45;;;;;;;19.30;14.68;;;;;;;;;;4968736;28;20046;-70
2021/08/31 01:07:12;;;;;;;18.85;14.50;;;;;;;;;;4969224;28;20047;-71
2021/08/31 01:09:44;;;;;;;20.52;14.70;;;;;;;;;;4966885;28;20459;-73
2021/08/31 01:12:12;;;;;;;21.17;14.32;;;;;;;;;;4983334;28;20401;-70
2021/08/31 01:14:40;;;;;;;20.90;14.82;;;;;;;;;;4968141;28;20449;-70
2021/08/31 01:17:08;;;;;;;18.95;13.90;;;;;;;;;;4968885;28;20070;-70
2021/08/31 01:19:35;;;;;;;18.30;14.07;;;;;;;;;;4983144;28;20039;-70
2021/08/31 01:22:05;;;;;;;19.98;14.05;;;;;;;;;;4968260;28;20050;-70
2021/08/31 01:24:33;;;;;;;21.15;13.25;;;;;;;;;;4967610;28;20070;-71
2021/08/31 01:27:01;;;;;;;17.25;12.98;;;;;;;;;;4968623;28;20515;-70
2021/08/31 01:29:29;;;;;;;20.00;13.73;;;;;;;;;;4966596;28;20130;-70
2021/08/31 01:31:58;;;;;;;16.20;12.68;;;;;;;;;;4968017;28;20073;-70
2021/08/31 01:34:25;;;;;;;18.50;13.15;;;;;;;;;;4968143;28;20057;-71
2021/08/31 01:36:53;;;;;;;20.00;13.27;;;;;;;;;;4968523;28;20045;-70
2021/08/31 01:39:20;;;;;;;19.83;12.93;;;;;;;;;;4967641;28;20929;-70
2021/08/31 01:41:47;;;;;;;19.83;12.93;;;;;;;;;;4967979;28;20059;-70
2021/08/31 01:44:14;;;;;;;17.98;12.40;;;;;;;;;;4968502;28;20413;-70
2021/08/31 01:46:41;;;;;;;20.02;14.23;;;;;;;;;;4966228;28;20038;-72
2021/08/31 01:49:08;;;;;;;15.85;12.73;;;;;;;;;;4967762;28;20053;-73
2021/08/31 01:51:35;;;;;;;17.67;13.95;;;;;;;;;;4968218;28;20039;-72
2021/08/31 01:54:03;;;;;;;21.15;13.30;;;;;;;;;;4966455;28;20038;-73
2021/08/31 01:56:30;;;;;;;18.25;13.48;;;;;;;;;;4967009;28;20072;-70
2021/08/31 01:58:57;;;;;;;19.27;12.93;;;;;;;;;;4967095;28;20039;-70
2021/08/31 02:01:24;;;;;;;18.42;12.85;;;;;;;;;;4966752;28;20425;-73
2021/08/31 02:03:51;;;;;;;19.30;12.40;;;;;;;;;;4981727;28;20090;-70
2021/08/31 02:06:18;;;;;;;19.17;13.77;;;;;;;;;;4966851;28;20125;-70
2021/08/31 02:08:46;;;;;;;16.42;12.10;;;;;;;;;;4966876;28;20469;-72
2021/08/31 02:11:13;;;;;;;19.00;13.50;;;;;;;;;;4967082;28;21112;-71
2021/08/31 02:13:40;;;;;;;17.33;12.05;;;;;;;;;;4966589;28;20038;-70
2021/08/31 02:16:10;;;;;;;17.52;13.10;;;;;;;;;;4973176;28;20505;-75
2021/08/31 02:18:39;;;;;;;18.52;12.00;;;;;;;;;;4985671;28;20130;-70
2021/08/31 02:21:07;;;;;;;20.73;11.95;;;;;;;;;;4983879;28;20105;-70
2021/08/31 02:23:36;;;;;;;15.90;11.48;;;;;;;;;;4983572;28;20436;-70
2021/08/31 02:26:03;;;;;;;16.83;11.52;;;;;;;;;;4981068;28;20131;-70
2021/08/31 02:28:30;;;;;;;17.38;11.30;;;;;;;;;;4984879;28;20062;-70
2021/08/31 02:30:57;;;;;;;15.38;10.85;;;;;;;;;;4984635;28;20047;-71
2021/08/31 02:33:24;;;;;;;16.80;10.93;;;;;;;;;;4982873;28;20174;-70
2021/08/31 02:35:51;;;;;;;17.20;10.88;;;;;;;;;;4984750;28;20046;-71
2021/08/31 02:38:18;;;;;;;14.95;10.52;;;;;;;;;;4984768;28;20500;-72
2021/08/31 02:40:46;;;;;;;16.08;11.20;;;;;;;;;;4984467;28;20042;-71
2021/08/31 02:43:13;;;;;;;17.58;10.65;;;;;;;;;;4976909;28;20089;-71
2021/08/31 02:45:40;;;;;;;14.93;9.95;;;;;;;;;;4982793;28;20046;-70
2021/08/31 02:48:11;;;;;;;14.63;9.75;;;;;;;;;;4982754;28;20077;-71
2021/08/31 02:50:38;;;;;;;13.38;8.93;;;;;;;;;;4983939;28;20046;-72
2021/08/31 02:53:05;;;;;;;14.85;10.13;;;;;;;;;;4983924;28;20400;-70
2021/08/31 02:55:32;;;;;;;17.50;10.70;;;;;;;;;;4984889;28;21121;-70
2021/08/31 02:57:59;;;;;;;14.82;10.10;;;;;;;;;;4984203;28;20153;-69
2021/08/31 03:00:30;;;;;;;13.50;9.40;;;;;;;;;;4984072;28;20048;-71
2021/08/31 03:02:58;;;;;;;14.55;9.38;;;;;;;;;;4983730;28;20034;-76
2021/08/31 03:05:25;;;;;;;15.75;9.82;;;;;;;;;;4975904;28;20072;-71
2021/08/31 03:07:53;;;;;;;11.95;8.38;;;;;;;;;;4982556;28;20129;-71
2021/08/31 03:10:23;;;;;;;11.98;8.85;;;;;;;;;;4983766;28;20049;-70
2021/08/31 03:12:50;;;;;;;12.20;8.50;;;;;;;;;;4973774;28;20122;-71
2021/08/31 03:15:17;;;;;;;12.70;8.45;;;;;;;;;;4981267;28;20404;-70
2021/08/31 03:17:44;;;;;;;12.05;8.50;;;;;;;;;;4983829;28;20039;-75
2021/08/31 03:20:11;;;;;;;12.05;8.65;;;;;;;;;;4976925;28;20085;-71
2021/08/31 03:22:39;;;;;;;12.13;8.43;;;;;;;;;;4996501;28;20472;-70
2021/08/31 03:25:07;;;;;;;17.52;9.38;;;;;;;;;;4982214;28;20089;-71
2021/08/31 03:27:35;;;;;;;12.30;8.93;;;;;;;;;;4982495;28;20469;-70
2021/08/31 03:30:04;;;;;;;11.73;8.23;;;;;;;;;;4984994;28;20050;-71
2021/08/31 03:32:31;;;;;;;13.60;8.60;;;;;;;;;;4984707;28;20047;-71
2021/08/31 03:34:58;;;;;;;11.20;7.53;;;;;;;;;;4982963;28;20038;-74
2021/08/31 03:37:25;;;;;;;11.45;7.88;;;;;;;;;;4985022;28;20049;-70
2021/08/31 03:39:52;;;;;;;12.70;8.20;;;;;;;;;;4984320;28;20101;-70
2021/08/31 03:42:20;;;;;;;10.32;7.80;;;;;;;;;;4984790;28;20104;-75
2021/08/31 03:44:47;;;;;;;17.80;7.88;;;;;;;;;;4982905;28;20043;-70
2021/08/31 03:47:14;;;;;;;13.15;8.85;;;;;;;;;;4984546;28;20050;-72
2021/08/31 03:49:41;;;;;;;13.60;8.38;;;;;;;;;;4984856;28;20085;-71
2021/08/31 03:52:08;;;;;;;12.88;7.97;;;;;;;;;;4982848;28;20034;-70
2021/08/31 03:54:35;;;;;;;11.00;7.63;;;;;;;;;;4984866;28;20089;-70
2021/08/31 03:57:02;;;;;;;10.15;7.05;;;;;;;;;;4982961;28;20179;-71
2021/08/31 03:59:29;;;;;;;10.73;7.50;;;;;;;;;;4998960;28;20070;-71
2021/08/31 04:01:57;;;;;;;9.15;6.45;;;;;;;;;;4999544;28;20045;-70
2021/08/31 04:04:24;;;;;;;9.40;7.03;;;;;;;;;;4969880;28;20064;-70
2021/08/31 04:06:51;;;;;;;11.02;7.18;;;;;;;;;;4988709;28;20188;-70
2021/08/31 04:09:19;;;;;;;12.10;7.57;;;;;;;;;;4988617;28;20497;-71
2021/08/31 04:11:46;;;;;;;9.95;7.18;;;;;;;;;;4988285;28;20054;-71
2021/08/31 04:14:13;;;;;;;10.10;6.65;;;;;;;;;;4988364;28;20045;-74
2021/08/31 04:16:40;;;;;;;11.15;7.22;;;;;;;;;;4987754;28;20035;-70
2021/08/31 04:19:07;;;;;;;14.07;8.30;;;;;;;;;;4988597;28;20042;-70
2021/08/31 04:21:34;;;;;;;12.90;7.13;;;;;;;;;;4987778;28;20045;-73
2021/08/31 04:24:01;;;;;;;10.00;7.18;;;;;;;;;;4987815;28;20401;-71
2021/08/31 04:26:30;;;;;;;9.80;6.80;;;;;;;;;;5003025;28;20044;-70
2021/08/31 04:28:57;;;;;;;10.60;7.32;;;;;;;;;;4987488;28;20049;-71
2021/08/31 04:31:24;;;;;;;13.00;6.80;;;;;;;;;;4987788;28;20050;-71
2021/08/31 04:33:52;;;;;;;11.80;7.13;;;;;;;;;;4988158;28;20042;-76
2021/08/31 04:36:19;;;;;;;11.77;6.97;;;;;;;;;;4987643;28;20505;-70
2021/08/31 04:38:46;;;;;;;12.48;7.03;;;;;;;;;;4987455;28;20504;-72
2021/08/31 04:41:14;;;;;;;9.82;6.65;;;;;;;;;;4987830;28;20050;-72
2021/08/31 04:43:42;;;;;;;10.68;7.45;;;;;;;;;;4985956;28;20066;-76
2021/08/31 04:46:09;;;;;;;10.52;7.10;;;;;;;;;;4987830;28;20034;-71
2021/08/31 04:48:39;;;;;;;12.13;7.32;;;;;;;;;;4988055;28;20137;-71
2021/08/31 04:51:06;;;;;;;11.48;6.95;;;;;;;;;;4986035;28;20042;-74
2021/08/31 04:53:34;;;;;;;9.77;7.45;;;;;;;;;;4986034;28;20097;-71
2021/08/31 04:56:01;;;;;;;12.98;7.40;;;;;;;;;;5002678;28;20049;-71
2021/08/31 04:58:28;;;;;;;12.68;7.35;;;;;;;;;;4980276;28;20465;-74
2021/08/31 05:00:55;;;;;;;9.63;6.95;;;;;;;;;;4999571;28;20057;-70
2021/08/31 05:03:22;;;;;;;10.98;7.90;;;;;;;;;;4987235;28;20043;-71
2021/08/31 05:05:49;;;;;;;10.77;7.28;;;;;;;;;;4987077;28;20046;-73
2021/08/31 05:08:19;;;;;;;10.93;7.22;;;;;;;;;;4987868;28;20489;-70
2021/08/31 05:10:48;;;;;;;10.48;7.43;;;;;;;;;;4985557;28;20053;-71
2021/08/31 05:13:15;;;;;;;12.20;7.82;;;;;;;;;;5001748;28;20038;-71
2021/08/31 05:15:42;;;;;;;14.32;7.60;;;;;;;;;;4986305;28;20097;-73
2021/08/31 05:18:09;;;;;;;13.27;7.50;;;;;;;;;;5002116;28;20097;-70
2021/08/31 05:20:37;;;;;;;12.48;7.60;;;;;;;;;;4985618;28;20046;-71
2021/08/31 05:23:06;;;;;;;12.60;7.82;;;;;;;;;;4987608;28;20034;-72
2021/08/31 05:25:33;;;;;;;10.13;6.68;;;;;;;;;;4986913;28;20049;-71
2021/08/31 05:28:00;;;;;;;11.02;7.78;;;;;;;;;;4986803;28;20129;-72
2021/08/31 05:30:27;;;;;;;13.50;8.38;;;;;;;;;;5001935;28;20048;-70
2021/08/31 05:32:54;;;;;;;12.35;7.90;;;;;;;;;;4986845;28;20035;-71
2021/08/31 05:35:21;;;;;;;11.05;7.43;;;;;;;;;;4986952;28;20054;-76
2021/08/31 05:37:48;;;;;;;13.25;7.82;;;;;;;;;;5001496;28;20054;-70
2021/08/31 05:40:16;;;;;;;12.32;8.10;;;;;;;;;;4984773;28;20046;-72
2021/08/31 05:42:46;;;;;;;10.43;7.63;;;;;;;;;;4985466;28;20125;-71
2021/08/31 05:45:13;;;;;;;11.50;8.73;;;;;;;;;;4986681;28;20070;-71
2021/08/31 05:47:40;;;;;;;13.93;7.65;;;;;;;;;;5001171;28;20054;-71
2021/08/31 05:50:08;;;;;;;14.80;8.43;;;;;;;;;;4985404;28;20043;-70
2021/08/31 05:52:35;;;;;;;12.07;8.32;;;;;;;;;;4986532;28;20038;-71
2021/08/31 05:55:03;;;;;;;11.88;7.95;;;;;;;;;;4986257;28;20500;-71
2021/08/31 05:57:30;;;;;;;12.40;8.15;;;;;;;;;;4985255;28;20081;-70
2021/08/31 05:59:57;;;;;;;11.43;7.75;;;;;;;;;;4977455;28;20054;-70
2021/08/31 06:02:24;;;;;;;12.57;9.18;;;;;;;;;;4965528;28;20043;-71
2021/08/31 06:04:51;;;;;;;14.10;8.48;;;;;;;;;;4981834;28;20077;-71
2021/08/31 06:07:18;;;;;;;13.77;8.98;;;;;;;;;;4966956;28;20057;-71
2021/08/31 06:09:45;;;;;;;13.15;9.40;;;;;;;;;;4965114;28;20043;-72
2021/08/31 06:12:13;;;;;;;12.32;8.93;;;;;;;;;;4965895;28;20043;-71
2021/08/31 06:14:41;;;;;;;13.35;8.52;;;;;;;;;;4977105;28;20462;-71
2021/08/31 06:17:09;;;;;;;12.98;8.98;;;;;;;;;;4966194;28;20085;-71
2021/08/31 06:19:36;;;;;;;11.85;8.15;;;;;;;;;;4967101;28;20045;-70
2021/08/31 06:22:05;;;;;;;12.68;8.93;;;;;;;;;;4981443;28;20069;-71
2021/08/31 06:24:31;;;;;;;;;;;;;;;;;;4981218;28;20121;-71
2021/08/31 06:26:58;;;;;;;13.80;8.65;;;;;;;;;;4966839;28;19965;-71
2021/08/31 06:29:25;;;;;;;14.07;9.15;;;;;;;;;;4966380;28;20109;-70
2021/08/31 06:31:53;;;;;;;14.35;9.60;;;;;;;;;;4966382;28;20042;-71
2021/08/31 06:34:20;;;;;;;12.63;9.02;;;;;;;;;;4976755;28;20118;-71
2021/08/31 06:36:48;;;;;;;17.10;9.57;;;;;;;;;;4967099;28;20078;-73
2021/08/31 06:39:15;;;;;;;12.57;8.60;;;;;;;;;;4948209;28;20053;-72
2021/08/31 06:41:42;;;;;;;16.08;9.40;;;;;;;;;;4964822;28;20043;-68
2021/08/31 06:44:10;;;;;;;14.32;9.25;;;;;;;;;;4966253;28;20047;-71
2021/08/31 06:46:37;;;;;;;12.57;8.85;;;;;;;;;;4980574;28;20042;-70
2021/08/31 06:49:04;;;;;;;13.57;9.65;;;;;;;;;;4966330;28;20553;-68
2021/08/31 06:51:31;;;;;;;12.55;9.10;;;;;;;;;;4964207;28;20082;-71
2021/08/31 06:54:01;;;;;;;13.38;9.32;;;;;;;;;;4965749;28;20400;-70
2021/08/31 06:56:28;;;;;;;13.65;9.40;;;;;;;;;;4977083;28;20042;-69
2021/08/31 06:58:55;;;;;;;13.68;9.73;;;;;;;;;;4980517;28;20519;-70
2021/08/31 07:01:22;;;;;;;14.50;9.57;;;;;;;;;;4965974;28;20117;-72
2021/08/31 07:03:48;;;;;;;12.90;8.40;;;;;;;;;;4964625;28;20089;-68
2021/08/31 07:06:15;;;;;;;13.10;9.48;;;;;;;;;;4965468;28;20045;-74
2021/08/31 07:08:42;;;;;;;15.38;9.27;;;;;;;;;;4966266;28;20527;-69
2021/08/31 07:11:10;;;;;;;14.93;9.63;;;;;;;;;;4965602;28;20047;-69
2021/08/31 07:13:37;;;;;;;14.65;9.73;;;;;;;;;;4965376;28;20101;-72
2021/08/31 07:16:04;;;;;;;11.95;8.77;;;;;;;;;;4968155;28;20042;-68
2021/08/31 07:18:31;;;;;;;14.77;9.35;;;;;;;;;;4988501;28;20102;-68
2021/08/31 07:20:58;;;;;;;14.73;9.82;;;;;;;;;;4965369;28;20046;-72
2021/08/31 07:23:25;;;;;;;11.93;8.77;;;;;;;;;;4965855;28;20509;-68
2021/08/31 07:25:52;;;;;;;16.08;9.95;;;;;;;;;;4963843;28;20046;-71
2021/08/31 07:28:19;;;;;;;13.60;9.52;;;;;;;;;;4965434;28;20045;-71
2021/08/31 07:30:46;;;;;;;15.52;9.98;;;;;;;;;;4964169;28;20043;-68
2021/08/31 07:33:14;;;;;;;13.48;8.70;;;;;;;;;;4965268;28;20050;-69
2021/08/31 07:35:43;;;;;;;13.70;9.30;;;;;;;;;;4965908;28;20043;-70
2021/08/31 07:38:10;;;;;;;13.07;9.88;;;;;;;;;;4989024;28;20046;-68
2021/08/31 07:40:40;;;;;;;;;;;;;;;;;;4966267;28;20046;-68
2021/08/31 07:43:10;;;;;;;12.35;8.63;;;;;;;;;;4963337;28;19925;-69
2021/08/31 07:45:37;;;;;;;15.30;9.63;;;;;;;;;;4965746;28;20472;-69
2021/08/31 07:48:04;;;;;;;14.55;9.77;;;;;;;;;;4980012;28;20066;-71
2021/08/31 07:50:31;;;;;;;14.05;9.80;;;;;;;;;;4964956;28;20474;-70
2021/08/31 07:52:58;;;;;;;12.88;9.38;;;;;;;;;;4965773;28;20505;-68
2021/08/31 07:55:26;;;;;;;14.38;10.15;;;;;;;;;;4964958;28;20093;-69
2021/08/31 07:57:54;;;;;;;16.67;9.30;;;;;;;;;;4975139;28;20042;-69
2021/08/31 08:00:21;;;;;;;13.60;9.80;;;;;;;;;;4968701;28;20489;-69
2021/08/31 08:02:48;;;;;;;13.80;9.45;;;;;;;;;;4980772;28;20047;-69
2021/08/31 08:05:15;;;;;;;13.85;9.27;;;;;;;;;;4984484;28;20046;-69
2021/08/31 08:07:42;;;;;;;14.93;10.07;;;;;;;;;;4982841;28;20054;-70
2021/08/31 08:10:10;;;;;;;14.75;9.88;;;;;;;;;;4964908;28;20031;-69
2021/08/31 08:12:37;;;;;;;14.07;9.18;;;;;;;;;;4964809;28;20046;-70
2021/08/31 08:15:06;;;;;;;15.60;10.02;;;;;;;;;;4965198;28;20050;-69
2021/08/31 08:17:32;;;;;;;;;;;;;;;;;;4963709;28;20047;-69
2021/08/31 08:19:59;;;;;;;13.85;8.65;;;;;;;;;;4964853;28;19926;-70
2021/08/31 08:22:29;;;;;;;14.50;9.95;;;;;;;;;;4979685;28;20051;-68
2021/08/31 08:24:56;;;;;;;14.82;10.00;;;;;;;;;;4965026;28;20138;-74
2021/08/31 08:27:23;;;;;;;13.27;9.98;;;;;;;;;;4963376;28;20453;-69
2021/08/31 08:29:50;;;;;;;13.55;9.38;;;;;;;;;;4974472;28;20046;-69
2021/08/31 08:32:18;;;;;;;12.73;8.80;;;;;;;;;;4975365;28;20113;-72
2021/08/31 08:34:48;;;;;;;15.65;9.77;;;;;;;;;;4983871;28;20077;-68
2021/08/31 08:37:18;;;;;;;16.55;10.15;;;;;;;;;;4983976;28;20047;-75
2021/08/31 08:39:46;;;;;;;14.60;9.68;;;;;;;;;;4984236;28;20429;-74
2021/08/31 08:42:14;;;;;;;14.05;9.60;;;;;;;;;;4982545;28;20102;-69
2021/08/31 08:44:41;;;;;;;15.23;10.02;;;;;;;;;;4975801;28;20551;-69
2021/08/31 08:47:09;;;;;;;15.57;9.90;;;;;;;;;;4965028;28;20042;-69
2021/08/31 08:49:39;;;;;;;14.82;10.20;;;;;;;;;;4964892;28;20039;-69
2021/08/31 08:52:06;;;;;;;15.02;10.50;;;;;;;;;;4966538;28;20504;-69
2021/08/31 08:54:33;;;;;;;15.20;10.00;;;;;;;;;;4967967;28;20091;-70
2021/08/31 08:57:00;;;;;;;16.48;9.13;;;;;;;;;;4968168;28;20066;-69
2021/08/31 08:59:28;;;;;;;15.32;10.15;;;;;;;;;;4982435;28;20524;-69
2021/08/31 09:01:56;;;;;;;13.35;9.75;;;;;;;;;;4975962;28;21027;-68
2021/08/31 09:04:42;;;;;;;15.15;9.32;;;;;;;;;;4981103;28;20125;-69
2021/08/31 09:07:37;;;;;;;15.45;9.27;;;;;;;;;;4967923;28;20139;-68
2021/08/31 09:10:23;;;;;;;14.57;9.60;;;;;;;;;;4966257;28;20371;-69
2021/08/31 09:12:52;;;;;;;14.98;9.98;;;;;;;;;;4967637;28;20045;-68
2021/08/31 09:15:36;;;;;;;14.93;9.82;;;;;;;;;;4982343;28;20070;-71
2021/08/31 09:18:10;;;;;;;14.35;10.00;;;;;;;;;;4982129;28;20039;-68
2021/08/31 09:20:55;;;;;;;13.80;9.55;;;;;;;;;;4967606;28;20039;-69
2021/08/31 09:23:26;;;;;;;15.18;9.75;;;;;;;;;;4987629;28;20050;-69
2021/08/31 09:26:04;;;;;;;14.93;10.23;;;;;;;;;;4977481;28;20042;-68
2021/08/31 09:28:37;;;;;;;15.27;9.80;;;;;;;;;;4985153;28;20039;-68
2021/08/31 09:31:06;;;;;;;15.85;9.45;;;;;;;;;;4979148;28;20104;-68
2021/08/31 09:33:36;;;;;;;13.93;9.30;;;;;;;;;;4972049;28;20047;-68
2021/08/31 09:36:06;;;;;;;15.52;9.13;;;;;;;;;;4989294;28;20030;-69
2021/08/31 09:38:46;;;;;;;14.10;9.50;;;;;;;;;;4986486;28;20050;-69
2021/08/31 09:41:35;;;;;;;13.32;9.32;;;;;;;;;;4986447;28;20046;-69
2021/08/31 09:44:24;;;;;;;13.23;8.88;;;;;;;;;;4974454;28;20504;-69
2021/08/31 09:47:02;;;;;;;13.77;9.88;;;;;;;;;;4978701;28;20054;-69
2021/08/31 09:49:39;;;;;;;16.08;10.27;;;;;;;;;;4975594;28;20054;-71
2021/08/31 09:52:10;;;;;;;15.70;10.07;;;;;;;;;;4965053;28;20162;-70
2021/08/31 09:54:40;;;;;;;15.07;9.82;;;;;;;;;;4966546;28;20417;-69
2021/08/31 09:57:41;;;;;;;13.65;9.48;;;;;;;;;;4966346;28;20046;-70
2021/08/31 10:00:15;;;;;;;12.30;8.98;;;;;;;;;;4976553;28;20047;-70
2021/08/31 10:02:43;;;;;;;14.00;8.80;;;;;;;;;;4966830;28;20050;-70
2021/08/31 10:05:13;;;;;;;12.75;8.85;;;;;;;;;;4965571;28;20118;-69
2021/08/31 10:07:43;;;;;;;12.32;8.50;;;;;;;;;;4967243;28;20125;-71
2021/08/31 10:10:11;;;;;;;13.48;7.97;;;;;;;;;;4967162;28;20070;-71
2021/08/31 10:12:39;;;;;;;12.75;8.45;;;;;;;;;;4981993;28;20401;-70
2021/08/31 10:15:08;;;;;;;11.77;8.02;;;;;;;;;;4967344;28;20043;-69
2021/08/31 10:17:38;;;;;;;11.38;8.23;;;;;;;;;;4967157;28;20070;-70
2021/08/31 10:20:06;;;;;;;11.07;7.93;;;;;;;;;;4967000;28;20039;-70
2021/08/31 10:22:33;;;;;;;10.18;7.75;;;;;;;;;;4981798;28;20101;-70
2021/08/31 10:25:01;;;;;;;12.63;8.20;;;;;;;;;;4966972;28;20035;-69
2021/08/31 10:27:38;;;;;;;10.50;7.55;;;;;;;;;;4981491;28;20118;-70
2021/08/31 10:30:20;;;;;;;8.90;7.45;;;;;;;;;;4981645;28;20046;-70
2021/08/31 10:32:58;;;;;;;9.55;8.00;;;;;;;;;;4966925;28;20051;-70
2021/08/31 10:35:43;;;;;;;11.88;7.60;;;;;;;;;;4966799;28;20062;-70
2021/08/31 10:38:12;;;;;;;10.68;8.00;;;;;;;;;;4966862;28;20052;-70
2021/08/31 10:40:46;;;;;;;10.57;9.00;;;;;;;;;;4964597;28;20046;-69
2021/08/31 10:43:16;;;;;;;9.38;7.00;;;;;;;;;;4964856;28;20039;-70
2021/08/31 10:45:55;;;;;;;8.95;7.05;;;;;;;;;;4966250;28;20058;-70
2021/08/31 10:48:25;;;;;;;9.38;7.15;;;;;;;;;;4965902;28;20038;-73
2021/08/31 10:51:09;;;;;;;9.57;7.00;;;;;;;;;;4980524;28;20046;-68
2021/08/31 10:53:38;;;;;;;10.52;6.80;;;;;;;;;;4965363;28;20474;-68
2021/08/31 10:58:53;;;;;;;9.35;7.07;;;;;;;;;;4987063;28;20543;-68
2021/08/31 11:01:23;;;;;;;11.27;7.28;;;;;;;;;;5001736;28;20121;-71
2021/08/31 11:03:52;;;;;;;12.00;7.82;;;;;;;;;;5001014;28;20050;-68
2021/08/31 11:06:22;;;;;;;8.95;6.90;;;;;;;;;;4986031;28;20053;-69
2021/08/31 11:09:17;;;;;;;7.88;6.70;;;;;;;;;;5004913;28;20037;-73
2021/08/31 11:11:58;;;;;;;9.50;6.70;;;;;;;;;;4999818;28;20389;-67
2021/08/31 11:14:39;;;;;;;8.68;6.70;;;;;;;;;;5001300;28;20496;-68
2021/08/31 11:17:06;;;;;;;8.18;6.80;;;;;;;;;;4997270;28;20397;-67
2021/08/31 11:19:34;;;;;;;9.88;6.47;;;;;;;;;;4998585;28;20057;-68
2021/08/31 11:22:01;;;;;;;9.68;6.15;;;;;;;;;;5003587;28;20052;-68
2021/08/31 11:24:28;;;;;;;10.43;6.43;;;;;;;;;;5004055;28;20050;-69
2021/08/31 11:27:01;;;;;;;9.02;6.03;;;;;;;;;;5002825;28;20048;-68
2021/08/31 11:29:28;;;;;;;7.60;5.72;;;;;;;;;;5002493;28;20097;-68
2021/08/31 11:32:04;;;;;;;7.20;5.22;;;;;;;;;;5001850;28;20041;-68
2021/08/31 11:34:31;;;;;;;8.15;5.20;;;;;;;;;;5004183;28;20058;-68
2021/08/31 11:37:04;;;;;;;6.25;5.18;;;;;;;;;;4986062;28;20049;-69
2021/08/31 11:39:31;;;;;;;9.85;5.38;;;;;;;;;;5003590;28;20045;-71
2021/08/31 11:41:58;;;;;;;6.97;4.88;;;;;;;;;;5002784;28;20052;-67
2021/08/31 11:44:25;;;;;;;6.18;4.25;;;;;;;;;;5003584;28;20061;-67
2021/08/31 11:46:56;;;;;;;5.45;3.97;;;;;;;;;;5002371;28;20050;-68
2021/08/31 11:49:23;;;;;;;7.63;4.32;;;;;;;;;;5001994;28;20049;-66
2021/08/31 11:52:12;;;;;;;6.25;4.20;;;;;;;;;;5002526;28;20046;-69
2021/08/31 11:54:50;;;;;;;5.90;3.72;;;;;;;;;;5003838;28;20484;-69
2021/08/31 11:57:18;;;;;;;7.70;4.80;;;;;;;;;;5002226;28;20108;-76
2021/08/31 11:59:47;;;;;;;5.40;4.00;;;;;;;;;;5017913;28;20107;-73
2021/08/31 12:02:28;;;;;;;6.82;3.97;;;;;;;;;;5002246;28;20088;-70
2021/08/31 12:04:56;;;;;;;6.72;3.83;;;;;;;;;;5003831;28;20045;-69
2021/08/31 12:07:45;;;;;;;5.28;3.45;;;;;;;;;;5017855;28;20068;-71
2021/08/31 12:10:14;;;;;;;4.68;3.40;;;;;;;;;;5018216;28;20403;-69
2021/08/31 12:12:45;;;;;;;7.18;4.10;;;;;;;;;;4986234;28;20511;-68
2021/08/31 12:15:13;;;;;;;7.22;3.47;;;;;;;;;;4984009;28;20038;-68
2021/08/31 12:17:44;;;;;;;9.32;4.15;;;;;;;;;;4983503;28;20046;-74
2021/08/31 12:20:17;;;;;;;6.65;3.65;;;;;;;;;;4981759;28;20046;-68
2021/08/31 12:22:49;;;;;;;5.18;3.33;;;;;;;;;;4983664;28;20405;-68
2021/08/31 12:25:18;;;;;;;7.45;3.30;;;;;;;;;;5001810;28;20129;-69
2021/08/31 12:27:46;;;;;;;6.47;3.25;;;;;;;;;;4988078;28;20074;-68
2021/08/31 12:30:17;;;;;;;6.35;3.25;;;;;;;;;;4988484;28;20045;-68
2021/08/31 12:32:54;;;;;;;5.43;2.70;;;;;;;;;;4988077;28;20050;-68
2021/08/31 12:35:25;;;;;;;4.57;2.85;;;;;;;;;;5002649;28;20045;-68
2021/08/31 12:38:11;;;;;;;4.15;2.45;;;;;;;;;;4987709;28;20555;-69
2021/08/31 12:41:07;;;;;;;5.63;2.38;;;;;;;;;;4985971;28;20101;-68
2021/08/31 12:43:46;;;;;;;5.10;1.67;;;;;;;;;;4987823;28;20049;-69
2021/08/31 12:46:34;;;;;;;5.43;1.75;;;;;;;;;;4985619;28;20050;-73
2021/08/31 12:49:13;;;;;;;3.55;1.83;;;;;;;;;;4987284;28;20129;-74
2021/08/31 12:51:53;;;;;;;7.15;1.70;;;;;;;;;;4987483;28;20035;-68
2021/08/31 12:54:36;;;;;;;5.25;2.35;;;;;;;;;;4987723;28;20042;-68
2021/08/31 12:57:08;;;;;;;3.63;1.83;;;;;;;;;;4987244;28;20043;-69
2021/08/31 12:59:42;;;;;;;5.63;2.47;;;;;;;;;;4987704;28;20062;-68
2021/08/31 13:02:13;;;;;;;4.53;2.25;;;;;;;;;;4987481;28;20476;-68
2021/08/31 13:04:43;;;;;;;5.72;2.33;;;;;;;;;;5001769;28;20039;-70
2021/08/31 13:07:14;;;;;;;3.05;1.88;;;;;;;;;;4987312;28;20096;-68
2021/08/31 13:09:42;;;;;;;5.43;2.53;;;;;;;;;;4987121;28;20505;-69
2021/08/31 13:12:11;;;;;;;4.10;2.35;;;;;;;;;;4986846;28;20038;-69
2021/08/31 13:14:39;;;;;;;4.07;2.08;;;;;;;;;;5001415;28;20077;-70
2021/08/31 13:17:07;;;;;;;5.15;1.90;;;;;;;;;;4986164;28;20046;-68
2021/08/31 13:20:09;;;;;;;5.03;1.98;;;;;;;;;;5054948;27;20399;-68
2021/08/31 13:22:37;;;;;;;6.18;2.17;;;;;;;;;;4959210;28;20087;-67
2021/08/31 13:25:07;;;;;;;3.67;2.25;;;;;;;;;;4997626;28;22680;-69
2021/08/31 13:27:34;;;;;;;4.50;2.25;;;;;;;;;;4984201;28;20728;-68
2021/08/31 13:30:02;;;;;;;4.68;1.98;;;;;;;;;;4981066;28;20062;-71
2021/08/31 13:32:29;;;;;;;3.47;1.88;;;;;;;;;;4978400;28;20113;-69
2021/08/31 13:34:56;;;;;;;5.40;1.98;;;;;;;;;;4981517;28;20149;-73
2021/08/31 13:37:23;;;;;;;5.25;2.38;;;;;;;;;;4978819;28;20046;-70
2021/08/31 13:39:50;;;;;;;5.63;2.92;;;;;;;;;;4980909;28;20515;-69
2021/08/31 13:42:19;;;;;;;6.28;2.42;;;;;;;;;;4978076;28;20039;-74
2021/08/31 13:44:46;;;;;;;5.15;2.35;;;;;;;;;;4980368;28;20057;-76
2021/08/31 13:47:13;;;;;;;3.47;1.90;;;;;;;;;;4978035;28;20536;-69
2021/08/31 13:49:40;;;;;;;5.38;2.25;;;;;;;;;;4978279;28;20042;-69
2021/08/31 13:52:07;;;;;;;5.60;2.70;;;;;;;;;;4983992;28;20099;-74
2021/08/31 13:54:34;;;;;;;8.48;2.22;;;;;;;;;;4963573;28;20060;-69
2021/08/31 13:57:01;;;;;;;5.00;2.28;;;;;;;;;;4986419;28;20066;-69
2021/08/31 13:59:28;;;;;;;5.95;3.03;;;;;;;;;;4994507;28;20049;-74
2021/08/31 14:01:55;;;;;;;9.95;3.78;;;;;;;;;;4993589;28;22200;-69
2021/08/31 14:04:22;;;;;;;7.35;3.80;;;;;;;;;;4999154;28;20500;-69
2021/08/31 14:06:49;;;;;;;6.22;2.33;;;;;;;;;;5012965;28;20997;-67
2021/08/31 14:09:16;;;;;;;5.70;2.30;;;;;;;;;;5021297;28;20053;-68
2021/08/31 14:11:43;;;;;;;6.07;2.08;;;;;;;;;;5022338;28;20050;-68
2021/08/31 14:14:10;;;;;;;5.95;2.08;;;;;;;;;;5022092;28;20044;-73
2021/08/31 14:16:37;;;;;;;4.30;1.90;;;;;;;;;;5022679;28;20092;-68
2021/08/31 14:19:04;;;;;;;5.57;2.15;;;;;;;;;;5019620;28;20592;-70
2021/08/31 14:21:34;;;;;;;6.82;2.10;;;;;;;;;;5021125;28;20576;-67
2021/08/31 14:24:01;;;;;;;6.93;2.40;;;;;;;;;;5018500;28;20053;-68
2021/08/31 14:26:28;;;;;;;5.53;1.98;;;;;;;;;;5024769;28;20049;-68
2021/08/31 14:28:56;;;;;;;6.50;2.20;;;;;;;;;;5019510;28;20437;-68
2021/08/31 14:31:23;;;;;;;4.05;2.10;;;;;;;;;;5005445;28;20385;-68
2021/08/31 14:33:50;;;;;;;4.55;1.95;;;;;;;;;;5006714;28;20076;-73
2021/08/31 14:36:17;;;;;;;5.15;2.38;;;;;;;;;;5006512;28;20560;-68
2021/08/31 14:38:44;;;;;;;6.88;2.05;;;;;;;;;;5001774;28;20049;-68
2021/08/31 14:41:12;;;;;;;5.65;1.88;;;;;;;;;;5019485;28;20432;-73
2021/08/31 14:43:42;;;;;;;6.38;2.20;;;;;;;;;;5011756;28;20166;-67
2021/08/31 14:46:09;;;;;;;5.93;2.10;;;;;;;;;;5010216;28;20061;-70